createdAt,value
2023-12-31T00:00:24.138Z,496.42
2023-12-31T00:02:50.775Z,495.02
2023-12-31T00:05:17.402Z,517.38
2023-12-31T00:07:43.917Z,505.77
2023-12-31T00:10:10.510Z,532.30
2023-12-31T00:12:37.087Z,502.60
2023-12-31T00:15:05.140Z,508.67
2023-12-31T00:17:31.707Z,501.27
2023-12-31T00:19:58.335Z,490.90
2023-12-31T00:22:24.986Z,487.10
2023-12-31T00:24:51.545Z,477.75
2023-12-31T00:27:18.875Z,495.23
2023-12-31T00:29:45.455Z,515.22
2023-12-31T00:32:12.012Z,495.83
2023-12-31T00:34:38.807Z,515.55
2023-12-31T00:37:05.385Z,507.30
2023-12-31T00:39:31.951Z,502.20
2023-12-31T00:41:58.512Z,529.97
2023-12-31T00:44:25.086Z,514.03
2023-12-31T00:46:51.861Z,494.08
2023-12-31T00:49:18.734Z,511.63
2023-12-31T00:51:45.631Z,487.60
2023-12-31T00:54:12.175Z,489.13
2023-12-31T00:56:38.835Z,509.63
2023-12-31T00:59:05.528Z,532.42
2023-12-31T01:01:32.494Z,545.65
2023-12-31T01:03:59.143Z,529.45
2023-12-31T01:06:25.728Z,536.33
2023-12-31T01:08:52.303Z,517.00
2023-12-31T01:11:18.857Z,545.08
2023-12-31T01:13:45.482Z,606.10
2023-12-31T01:16:12.286Z,537.35
2023-12-31T01:18:38.883Z,533.95
2023-12-31T01:21:05.477Z,542.63
2023-12-31T01:23:32.138Z,519.95
2023-12-31T01:25:58.669Z,505.13
2023-12-31T01:28:25.233Z,480.55
2023-12-31T01:30:51.890Z,431.73
2023-12-31T01:33:18.531Z,438.77
2023-12-31T01:35:45.103Z,407.25
2023-12-31T01:38:11.791Z,468.95
2023-12-31T01:40:38.415Z,436.67
2023-12-31T01:43:05.237Z,439.80
2023-12-31T01:45:31.912Z,389.13
2023-12-31T01:47:58.603Z,407.33
2023-12-31T01:50:25.779Z,354.25
2023-12-31T01:52:53.603Z,370.23
2023-12-31T01:55:21.164Z,393.23
2023-12-31T01:57:47.914Z,377.60
2023-12-31T02:00:15.004Z,375.15
2023-12-31T02:02:48.080Z,353.65
2023-12-31T02:05:15.614Z,330.50
2023-12-31T02:07:42.270Z,317.52
2023-12-31T02:10:09.483Z,258.45
2023-12-31T02:12:36.105Z,284.85
2023-12-31T02:15:02.674Z,205.65
2023-12-31T02:17:29.290Z,185.80
2023-12-31T02:19:55.821Z,196.77
2023-12-31T02:22:22.644Z,220.52
2023-12-31T02:24:50.483Z,225.40
2023-12-31T02:27:17.314Z,209.60
2023-12-31T02:29:43.921Z,222.05
2023-12-31T02:32:10.632Z,262.88
2023-12-31T02:34:37.268Z,297.52
2023-12-31T02:37:04.071Z,308.35
2023-12-31T02:39:30.671Z,268.65
2023-12-31T02:41:57.173Z,288.50
2023-12-31T02:44:23.914Z,284.38
2023-12-31T02:46:50.622Z,242.70
2023-12-31T02:49:17.217Z,199.07
2023-12-31T02:51:43.727Z,194.45
2023-12-31T02:54:10.273Z,192.88
2023-12-31T02:56:41.344Z,203.68
2023-12-31T02:59:07.920Z,192.32
2023-12-31T03:01:34.515Z,201.57
2023-12-31T03:04:01.073Z,201.00
2023-12-31T03:06:30.382Z,195.15
2023-12-31T03:08:56.937Z,168.20
2023-12-31T03:11:23.526Z,176.98
2023-12-31T03:13:50.133Z,136.27
2023-12-31T03:16:16.825Z,139.88
2023-12-31T03:18:43.504Z,149.60
2023-12-31T03:21:18.980Z,128.40
2023-12-31T03:23:45.741Z,107.07
2023-12-31T03:26:12.676Z,119.38
2023-12-31T03:28:39.256Z,112.75
2023-12-31T03:31:05.823Z,94.20
2023-12-31T03:33:32.546Z,103.85
2023-12-31T03:35:59.254Z,88.00
2023-12-31T03:38:25.772Z,94.47
2023-12-31T03:40:52.460Z,111.57
2023-12-31T03:43:19.169Z,137.25
2023-12-31T03:45:45.691Z,120.30
2023-12-31T03:48:12.419Z,126.70
2023-12-31T03:50:39.052Z,117.95
2023-12-31T03:53:05.977Z,124.35
2023-12-31T03:55:32.658Z,126.88
2023-12-31T03:57:59.213Z,120.38
2023-12-31T04:00:25.769Z,120.80
2023-12-31T04:02:52.249Z,124.18
2023-12-31T04:05:19.114Z,112.95
2023-12-31T04:07:46.868Z,115.40
2023-12-31T04:10:14.499Z,123.50
2023-12-31T04:12:41.040Z,117.32
2023-12-31T04:15:08.057Z,117.35
2023-12-31T04:17:35.507Z,114.28
2023-12-31T04:20:02.300Z,121.95
2023-12-31T04:22:29.271Z,121.82
2023-12-31T04:24:55.832Z,120.88
2023-12-31T04:27:22.467Z,115.60
2023-12-31T04:29:48.979Z,112.78
2023-12-31T04:32:15.494Z,113.05
2023-12-31T04:34:42.074Z,103.75
2023-12-31T04:37:08.652Z,105.15
2023-12-31T04:39:35.195Z,119.10
2023-12-31T04:42:01.767Z,106.50
2023-12-31T04:44:28.326Z,109.53
2023-12-31T04:46:54.968Z,100.20
2023-12-31T04:49:21.629Z,96.35
2023-12-31T04:51:48.185Z,92.47
2023-12-31T04:54:14.695Z,98.43
2023-12-31T04:56:41.327Z,89.47
2023-12-31T04:59:07.972Z,101.28
2023-12-31T05:01:34.633Z,91.43
2023-12-31T05:04:01.798Z,82.07
2023-12-31T05:06:28.421Z,75.80
2023-12-31T05:08:55.029Z,72.95
2023-12-31T05:11:21.652Z,69.50
2023-12-31T05:13:48.289Z,69.20
2023-12-31T05:16:15.942Z,86.10
2023-12-31T05:18:46.216Z,110.90
2023-12-31T05:21:14.001Z,103.43
2023-12-31T05:23:40.984Z,108.70
2023-12-31T05:26:07.585Z,101.00
2023-12-31T05:28:34.281Z,97.25
2023-12-31T05:31:01.048Z,92.72
2023-12-31T05:33:27.736Z,102.25
2023-12-31T05:35:54.315Z,125.93
2023-12-31T05:38:20.861Z,101.50
2023-12-31T05:40:47.546Z,68.95
2023-12-31T05:43:14.193Z,63.85
2023-12-31T05:45:40.756Z,80.50
2023-12-31T05:48:07.644Z,77.65
2023-12-31T05:50:34.533Z,69.30
2023-12-31T05:53:01.419Z,62.08
2023-12-31T05:55:28.263Z,80.43
2023-12-31T05:57:54.845Z,100.47
2023-12-31T06:00:21.442Z,104.40
2023-12-31T06:02:48.032Z,109.07
2023-12-31T06:05:16.198Z,103.30
2023-12-31T06:07:42.730Z,91.45
2023-12-31T06:10:09.629Z,89.50
2023-12-31T06:12:36.476Z,92.93
2023-12-31T06:15:04.207Z,101.97
2023-12-31T06:17:30.892Z,98.18
2023-12-31T06:19:57.486Z,100.35
2023-12-31T06:22:24.109Z,100.82
2023-12-31T06:24:50.695Z,97.50
2023-12-31T06:27:17.300Z,114.90
2023-12-31T06:29:43.851Z,115.32
2023-12-31T06:32:10.500Z,118.95
2023-12-31T06:34:37.124Z,109.07
2023-12-31T06:37:03.816Z,105.65
2023-12-31T06:39:30.421Z,92.65
2023-12-31T06:41:56.932Z,88.70
2023-12-31T06:44:23.506Z,90.47
2023-12-31T06:46:50.176Z,85.65
2023-12-31T06:49:16.854Z,85.57
2023-12-31T06:51:43.409Z,93.78
2023-12-31T06:54:10.032Z,117.18
2023-12-31T06:56:36.592Z,132.70
2023-12-31T06:59:03.158Z,139.75
2023-12-31T07:01:29.767Z,131.40
2023-12-31T07:03:56.310Z,130.90
2023-12-31T07:06:23.024Z,135.95
2023-12-31T07:08:49.598Z,132.63
2023-12-31T07:11:16.229Z,149.02
2023-12-31T07:13:42.924Z,151.82
2023-12-31T07:16:09.530Z,142.65
2023-12-31T07:18:36.226Z,146.93
2023-12-31T07:21:02.978Z,155.27
2023-12-31T07:23:29.520Z,157.27
2023-12-31T07:25:56.287Z,253.18
2023-12-31T07:28:22.926Z,193.93
2023-12-31T07:30:49.611Z,180.57
2023-12-31T07:33:16.294Z,165.45
2023-12-31T07:35:42.930Z,159.77
2023-12-31T07:38:09.594Z,167.75
2023-12-31T07:40:36.323Z,170.65
2023-12-31T07:43:03.264Z,168.02
2023-12-31T07:45:29.968Z,148.55
2023-12-31T07:47:56.565Z,152.88
2023-12-31T07:50:23.295Z,150.32
2023-12-31T07:52:49.912Z,154.18
2023-12-31T07:55:16.732Z,170.90
2023-12-31T07:57:43.282Z,178.10
2023-12-31T08:00:10.337Z,182.38
2023-12-31T08:02:36.845Z,184.15
2023-12-31T08:05:03.588Z,188.82
2023-12-31T08:07:30.201Z,186.98
2023-12-31T08:09:56.728Z,177.48
2023-12-31T08:12:23.274Z,183.65
2023-12-31T08:14:49.794Z,159.13
2023-12-31T08:17:16.358Z,106.95
2023-12-31T08:19:42.976Z,82.00
2023-12-31T08:22:09.558Z,87.07
2023-12-31T08:24:36.587Z,94.38
2023-12-31T08:27:03.143Z,100.70
2023-12-31T08:29:29.814Z,102.43
2023-12-31T08:31:56.398Z,102.22
2023-12-31T08:34:23.071Z,102.57
2023-12-31T08:36:49.676Z,94.43
2023-12-31T08:39:16.277Z,97.00
2023-12-31T08:41:42.774Z,91.43
2023-12-31T08:44:09.331Z,95.72
2023-12-31T08:46:35.954Z,90.78
2023-12-31T08:49:02.612Z,100.65
2023-12-31T08:51:29.314Z,100.68
2023-12-31T08:53:55.857Z,97.93
2023-12-31T08:56:22.421Z,88.18
2023-12-31T08:58:49.001Z,78.40
2023-12-31T09:01:15.643Z,68.07
2023-12-31T09:03:42.218Z,71.50
2023-12-31T09:06:11.242Z,72.95
2023-12-31T09:08:37.811Z,71.25
2023-12-31T09:11:04.508Z,71.60
2023-12-31T09:13:31.189Z,78.30
2023-12-31T09:15:57.790Z,116.25
2023-12-31T09:18:24.449Z,127.95
2023-12-31T09:20:51.312Z,171.88
2023-12-31T09:23:17.882Z,210.07
2023-12-31T09:25:44.687Z,157.57
2023-12-31T09:28:11.473Z,100.13
2023-12-31T09:30:38.056Z,109.80
2023-12-31T09:33:04.979Z,121.25
2023-12-31T09:35:31.739Z,113.60
2023-12-31T09:37:58.549Z,89.82
2023-12-31T09:40:25.176Z,80.30
2023-12-31T09:42:51.688Z,57.95
2023-12-31T09:45:25.492Z,78.93
2023-12-31T09:50:21.060Z,53.78
2023-12-31T09:52:48.847Z,81.55
2023-12-31T09:55:19.887Z,76.97
2023-12-31T09:57:52.914Z,50.72
2023-12-31T10:00:20.590Z,58.63
2023-12-31T10:02:49.379Z,52.67
2023-12-31T10:05:17.717Z,59.88
2023-12-31T10:07:44.892Z,41.70
2023-12-31T10:10:13.533Z,49.10
2023-12-31T10:12:40.129Z,59.45
2023-12-31T10:15:07.224Z,50.90
2023-12-31T10:17:33.819Z,51.40
2023-12-31T10:20:00.482Z,70.25
2023-12-31T10:22:30.573Z,55.00
2023-12-31T10:25:12.603Z,60.58
2023-12-31T10:27:39.276Z,63.53
2023-12-31T10:30:12.281Z,62.50
2023-12-31T10:32:38.960Z,65.40
2023-12-31T10:35:06.960Z,71.10
2023-12-31T10:37:33.700Z,69.07
2023-12-31T10:40:16.809Z,72.65
2023-12-31T10:42:48.202Z,52.38
2023-12-31T10:45:17.451Z,65.22
2023-12-31T10:47:45.362Z,72.82
2023-12-31T10:50:15.829Z,42.28
2023-12-31T10:52:44.175Z,44.30
2023-12-31T10:55:11.607Z,36.65
2023-12-31T11:00:05.169Z,33.90
2023-12-31T11:02:32.471Z,37.67
2023-12-31T11:09:53.848Z,50.75
2023-12-31T11:12:21.111Z,64.93
2023-12-31T11:17:46.704Z,38.00
2023-12-31T11:20:34.689Z,42.58
2023-12-31T11:23:25.863Z,30.80
2023-12-31T11:25:52.640Z,25.58
2023-12-31T11:28:19.777Z,29.58
2023-12-31T11:31:12.685Z,49.10
2023-12-31T11:33:40.657Z,28.17
2023-12-31T11:36:12.805Z,24.95
2023-12-31T11:38:57.585Z,37.60
2023-12-31T11:41:25.928Z,37.13
2023-12-31T11:43:53.256Z,44.35
2023-12-31T11:46:38.776Z,34.15
2023-12-31T11:49:09.450Z,34.10
2023-12-31T11:51:59.684Z,31.58
2023-12-31T11:54:37.297Z,46.65
2023-12-31T11:57:04.574Z,49.03
2023-12-31T12:02:01.192Z,26.00
2023-12-31T12:04:28.466Z,25.52
2023-12-31T12:06:55.190Z,41.50
2023-12-31T12:09:26.677Z,26.65
2023-12-31T12:11:53.307Z,44.88
2023-12-31T12:14:19.870Z,29.52
2023-12-31T12:16:46.398Z,29.42
2023-12-31T12:19:13.021Z,32.03
2023-12-31T12:21:39.603Z,36.53
2023-12-31T12:24:06.576Z,24.83
2023-12-31T12:26:33.252Z,27.38
2023-12-31T12:28:59.852Z,24.08
2023-12-31T12:31:26.387Z,16.77
2023-12-31T12:33:54.298Z,15.68
2023-12-31T12:36:21.748Z,15.73
2023-12-31T12:38:48.522Z,70.13
2023-12-31T12:41:24.227Z,16.90
2023-12-31T12:44:01.100Z,27.17
2023-12-31T12:46:29.087Z,19.77
2023-12-31T12:48:56.150Z,20.98
2023-12-31T12:51:23.301Z,24.27
2023-12-31T12:56:16.333Z,40.85
2023-12-31T12:58:43.275Z,24.83
2023-12-31T13:01:09.930Z,30.67
2023-12-31T13:03:36.585Z,40.38
2023-12-31T13:06:03.177Z,41.58
2023-12-31T13:08:29.875Z,49.30
2023-12-31T13:10:56.840Z,33.50
2023-12-31T13:13:24.423Z,34.88
2023-12-31T13:15:51.043Z,43.65
2023-12-31T13:18:18.383Z,37.63
2023-12-31T13:20:45.257Z,28.02
2023-12-31T13:23:11.880Z,26.45
2023-12-31T13:25:38.495Z,70.13
2023-12-31T13:28:05.407Z,109.28
2023-12-31T13:30:32.097Z,71.72
2023-12-31T13:32:58.661Z,39.40
2023-12-31T13:35:25.212Z,128.25
2023-12-31T13:37:51.763Z,199.68
2023-12-31T13:40:18.279Z,183.70
2023-12-31T13:42:44.858Z,52.83
2023-12-31T13:45:11.480Z,86.90
2023-12-31T13:47:38.112Z,47.03
2023-12-31T13:50:05.143Z,38.25
2023-12-31T13:52:31.923Z,40.17
2023-12-31T13:54:58.502Z,100.70
2023-12-31T13:57:25.112Z,78.38
2023-12-31T13:59:51.698Z,37.95
2023-12-31T14:02:18.340Z,69.25
2023-12-31T14:04:45.193Z,73.25
2023-12-31T14:07:11.881Z,76.20
2023-12-31T14:09:38.434Z,67.72
2023-12-31T14:12:06.113Z,88.05
2023-12-31T14:14:32.803Z,160.55
2023-12-31T14:16:59.500Z,118.65
2023-12-31T14:19:32.115Z,110.97
2023-12-31T14:21:59.380Z,106.13
2023-12-31T14:24:25.903Z,96.15
2023-12-31T14:26:52.491Z,80.82
2023-12-31T14:29:19.088Z,86.75
2023-12-31T14:31:45.816Z,85.13
2023-12-31T14:34:13.098Z,60.97
2023-12-31T14:36:39.878Z,66.80
2023-12-31T14:39:06.412Z,68.93
2023-12-31T14:41:32.995Z,66.22
2023-12-31T14:43:59.669Z,77.57
2023-12-31T14:46:26.212Z,65.95
2023-12-31T14:48:52.765Z,82.18
2023-12-31T14:51:19.477Z,211.40
2023-12-31T14:53:46.017Z,209.13
2023-12-31T14:56:12.526Z,272.85
2023-12-31T14:58:39.054Z,315.63
2023-12-31T15:01:06.195Z,385.63
2023-12-31T15:03:32.908Z,417.05
2023-12-31T15:06:00.307Z,351.70
2023-12-31T15:08:26.935Z,277.02
2023-12-31T15:10:53.579Z,230.80
2023-12-31T15:13:20.250Z,167.45
2023-12-31T15:15:46.851Z,198.85
2023-12-31T15:18:15.454Z,82.05
2023-12-31T15:20:42.095Z,215.02
2023-12-31T15:23:08.782Z,269.77
2023-12-31T15:25:35.422Z,169.32
2023-12-31T15:28:02.325Z,187.82
2023-12-31T15:30:29.008Z,193.05
2023-12-31T15:32:55.583Z,202.02
2023-12-31T15:35:22.236Z,238.25
2023-12-31T15:37:54.657Z,153.57
2023-12-31T15:40:27.152Z,141.52
2023-12-31T15:42:53.781Z,144.07
2023-12-31T15:45:20.900Z,142.90
2023-12-31T15:47:47.441Z,204.48
2023-12-31T15:50:15.122Z,230.57
2023-12-31T15:52:41.700Z,228.07
2023-12-31T15:55:08.736Z,211.40
2023-12-31T15:57:35.275Z,200.35
2023-12-31T16:00:01.842Z,186.70
2023-12-31T16:02:28.459Z,175.65
2023-12-31T16:04:54.999Z,181.13
2023-12-31T16:07:21.575Z,198.43
2023-12-31T16:09:48.176Z,186.02
2023-12-31T16:12:14.699Z,180.80
2023-12-31T16:14:41.258Z,168.77
2023-12-31T16:17:07.917Z,194.43
2023-12-31T16:19:34.512Z,204.77
2023-12-31T16:22:01.055Z,256.90
2023-12-31T16:24:27.624Z,413.58
2023-12-31T16:26:54.139Z,414.48
2023-12-31T16:29:20.677Z,327.58
2023-12-31T16:31:47.323Z,463.40
2023-12-31T16:34:13.901Z,414.65
2023-12-31T16:36:41.759Z,422.35
2023-12-31T16:39:08.341Z,511.45
2023-12-31T16:41:34.914Z,466.80
2023-12-31T16:44:01.580Z,458.02
2023-12-31T16:46:28.336Z,463.85
2023-12-31T16:48:55.052Z,441.50
2023-12-31T16:51:22.164Z,431.38
2023-12-31T16:53:48.714Z,445.50
2023-12-31T16:56:15.387Z,418.52
2023-12-31T16:58:41.972Z,427.73
2023-12-31T17:01:08.642Z,459.95
2023-12-31T17:03:35.171Z,459.92
2023-12-31T17:06:01.684Z,377.55
2023-12-31T17:08:28.251Z,326.83
2023-12-31T17:10:55.401Z,234.18
2023-12-31T17:13:22.000Z,238.55
2023-12-31T17:15:48.576Z,386.25
2023-12-31T17:18:15.216Z,331.48
2023-12-31T17:20:41.777Z,332.15
2023-12-31T17:23:08.348Z,220.02
2023-12-31T17:25:34.969Z,230.13
2023-12-31T17:28:01.709Z,324.42
2023-12-31T17:30:28.457Z,282.58
2023-12-31T17:32:55.148Z,292.70
2023-12-31T17:35:21.711Z,289.30
2023-12-31T17:37:48.427Z,297.83
2023-12-31T17:40:15.429Z,306.73
2023-12-31T17:42:42.007Z,427.65
2023-12-31T17:45:08.881Z,425.15
2023-12-31T17:47:35.441Z,377.88
2023-12-31T17:50:02.045Z,406.30
2023-12-31T17:52:30.095Z,399.33
2023-12-31T17:54:56.687Z,365.95
2023-12-31T17:57:24.637Z,487.02
2023-12-31T17:59:51.170Z,493.70
2023-12-31T18:02:17.690Z,462.50
2023-12-31T18:04:47.159Z,437.08
2023-12-31T18:07:13.934Z,444.65
2023-12-31T18:09:40.587Z,426.00
2023-12-31T18:12:07.466Z,444.48
2023-12-31T18:14:34.005Z,435.00
2023-12-31T18:17:00.639Z,453.73
2023-12-31T18:19:27.359Z,422.13
2023-12-31T18:21:53.976Z,445.08
2023-12-31T18:24:20.582Z,467.65
2023-12-31T18:26:47.122Z,450.27
2023-12-31T18:29:13.844Z,472.58
2023-12-31T18:31:40.549Z,453.27
2023-12-31T18:34:07.217Z,489.65
2023-12-31T18:36:33.777Z,484.40
2023-12-31T18:39:00.310Z,504.52
2023-12-31T18:41:26.827Z,495.88
2023-12-31T18:43:53.462Z,450.45
2023-12-31T18:46:20.202Z,513.22
2023-12-31T18:48:46.837Z,493.80
2023-12-31T18:51:13.467Z,533.42
2023-12-31T18:53:40.030Z,536.40
2023-12-31T18:56:10.833Z,605.00
2023-12-31T18:58:37.814Z,565.33
2023-12-31T19:01:04.664Z,552.15
2023-12-31T19:03:31.348Z,632.17
2023-12-31T19:05:57.923Z,624.50
2023-12-31T19:08:24.526Z,608.15
2023-12-31T19:10:51.129Z,579.42
2023-12-31T19:13:17.733Z,571.35
2023-12-31T19:15:44.339Z,475.55
2023-12-31T19:18:10.928Z,462.45
2023-12-31T19:20:37.583Z,492.08
2023-12-31T19:23:04.469Z,454.88
2023-12-31T19:25:31.105Z,494.08
2023-12-31T19:27:57.698Z,471.55
2023-12-31T19:30:24.248Z,513.28
2023-12-31T19:32:50.919Z,583.33
2023-12-31T19:35:17.604Z,538.53
2023-12-31T19:37:44.351Z,428.23
2023-12-31T19:40:11.487Z,430.52
2023-12-31T19:42:38.072Z,476.40
2023-12-31T19:45:05.001Z,497.10
2023-12-31T19:47:31.625Z,498.15
2023-12-31T19:49:59.628Z,458.90
2023-12-31T19:52:26.581Z,388.92
2023-12-31T19:54:53.270Z,368.50
2023-12-31T19:57:19.892Z,410.42
2023-12-31T19:59:46.449Z,428.60
2023-12-31T20:02:13.144Z,434.27
2023-12-31T20:04:39.763Z,461.25
2023-12-31T20:07:06.352Z,477.17
2023-12-31T20:09:32.868Z,458.02
2023-12-31T20:11:59.668Z,428.23
2023-12-31T20:14:26.268Z,439.75
2023-12-31T20:16:52.834Z,425.48
2023-12-31T20:19:19.487Z,413.50
2023-12-31T20:21:46.007Z,358.92
2023-12-31T20:24:12.601Z,323.70
2023-12-31T20:26:39.221Z,276.92
2023-12-31T20:29:05.898Z,287.52
2023-12-31T20:31:32.535Z,356.42
2023-12-31T20:33:59.224Z,324.98
2023-12-31T20:36:25.849Z,278.60
2023-12-31T20:38:52.359Z,275.58
2023-12-31T20:41:18.913Z,292.60
2023-12-31T20:43:45.560Z,279.73
2023-12-31T20:46:12.830Z,293.35
2023-12-31T20:48:39.476Z,403.25
2023-12-31T20:51:06.054Z,483.98
2023-12-31T20:53:32.730Z,449.13
2023-12-31T20:55:59.257Z,486.40
2023-12-31T20:58:25.908Z,461.80
2023-12-31T21:00:54.003Z,497.65
2023-12-31T21:03:20.788Z,501.92
2023-12-31T21:05:47.364Z,448.88
2023-12-31T21:08:16.891Z,445.73
2023-12-31T21:10:43.455Z,436.35
2023-12-31T21:13:09.965Z,424.98
2023-12-31T21:15:36.501Z,421.95
2023-12-31T21:18:03.537Z,419.98
2023-12-31T21:20:30.345Z,424.17
2023-12-31T21:22:56.990Z,455.75
2023-12-31T21:25:23.579Z,450.83
2023-12-31T21:27:50.100Z,440.65
2023-12-31T21:30:16.981Z,408.48
2023-12-31T21:32:43.688Z,404.67
2023-12-31T21:35:10.380Z,435.70
2023-12-31T21:37:37.015Z,409.83
2023-12-31T21:40:03.936Z,411.73
2023-12-31T21:42:30.494Z,423.35
2023-12-31T21:44:57.036Z,415.85
2023-12-31T21:47:23.633Z,409.48
2023-12-31T21:49:50.271Z,367.55
2023-12-31T21:52:16.857Z,291.10
2023-12-31T21:54:43.459Z,259.08
2023-12-31T21:57:10.167Z,281.67
2023-12-31T21:59:36.747Z,290.30
2023-12-31T22:02:03.424Z,281.70
2023-12-31T22:04:30.065Z,284.00
2023-12-31T22:06:56.620Z,274.23
2023-12-31T22:09:23.202Z,246.05
2023-12-31T22:11:49.730Z,258.42
2023-12-31T22:14:16.393Z,282.08
2023-12-31T22:16:43.089Z,326.88
2023-12-31T22:19:10.076Z,435.25
2023-12-31T22:21:36.724Z,442.73
2023-12-31T22:24:03.396Z,378.60
2023-12-31T22:26:29.970Z,417.65
2023-12-31T22:28:56.616Z,373.60
2023-12-31T22:31:23.249Z,344.38
2023-12-31T22:33:49.904Z,356.33
2023-12-31T22:36:16.528Z,317.55
2023-12-31T22:38:43.083Z,276.85
2023-12-31T22:41:10.002Z,306.98
2023-12-31T22:43:36.790Z,291.85
2023-12-31T22:46:03.465Z,336.27
2023-12-31T22:48:30.148Z,334.70
2023-12-31T22:50:56.748Z,281.98
2023-12-31T22:53:23.528Z,272.92
2023-12-31T22:55:50.082Z,276.25
2023-12-31T22:58:16.655Z,284.60
2023-12-31T23:00:43.248Z,278.88
2023-12-31T23:03:10.852Z,255.63
2023-12-31T23:05:37.711Z,211.38
2023-12-31T23:08:04.901Z,229.45
2023-12-31T23:10:31.663Z,222.48
2023-12-31T23:12:58.197Z,209.50
2023-12-31T23:15:24.901Z,224.48
2023-12-31T23:17:51.554Z,224.82
2023-12-31T23:20:18.338Z,226.95
2023-12-31T23:22:44.986Z,230.45
2023-12-31T23:25:11.671Z,292.70
2023-12-31T23:27:38.251Z,331.02
2023-12-31T23:30:05.852Z,300.60
2023-12-31T23:32:32.437Z,259.10
2023-12-31T23:34:59.034Z,288.23
2023-12-31T23:37:26.050Z,292.08
2023-12-31T23:39:52.681Z,281.65
2023-12-31T23:42:19.228Z,286.98
2023-12-31T23:44:45.855Z,317.95
2023-12-31T23:47:12.562Z,379.23
2023-12-31T23:49:39.430Z,350.85
2023-12-31T23:52:06.275Z,303.42
2023-12-31T23:54:32.840Z,308.38
2023-12-31T23:56:59.398Z,316.27
2023-12-31T23:59:25.967Z,287.50
